createdAt,value
2023-02-22T00:00:44.950Z,2.70
2023-02-22T00:03:25.238Z,1.90
2023-02-22T00:06:15.758Z,2.72
2023-02-22T00:08:42.811Z,2.53
2023-02-22T00:11:10.629Z,2.50
2023-02-22T00:13:38.740Z,2.22
2023-02-22T00:16:06.762Z,2.38
2023-02-22T00:18:33.825Z,2.72
2023-02-22T00:21:01.956Z,2.35
2023-02-22T00:23:30.845Z,4.32
2023-02-22T00:25:59.720Z,17.20
2023-02-22T00:28:27.067Z,4.35
2023-02-22T00:30:55.290Z,15.90
2023-02-22T00:33:22.798Z,14.98
2023-02-22T00:35:49.901Z,16.45
2023-02-22T00:38:19.476Z,11.60
2023-02-22T00:40:46.730Z,9.15
2023-02-22T00:43:14.211Z,20.95
2023-02-22T00:45:41.977Z,7.95
2023-02-22T00:48:10.142Z,6.13
2023-02-22T00:50:37.670Z,3.38
2023-02-22T00:53:07.468Z,5.65
2023-02-22T00:55:36.624Z,4.10
2023-02-22T00:58:04.511Z,4.30
2023-02-22T01:00:42.267Z,4.10
2023-02-22T01:03:13.231Z,2.33
2023-02-22T01:05:40.426Z,2.22
2023-02-22T01:08:12.316Z,2.30
2023-02-22T01:10:40.637Z,3.58
2023-02-22T01:13:09.643Z,5.70
2023-02-22T01:15:39.426Z,7.75
2023-02-22T01:18:07.112Z,4.10
2023-02-22T01:20:34.326Z,3.90
2023-02-22T01:23:03.968Z,3.03
2023-02-22T01:25:32.498Z,2.58
2023-02-22T01:28:01.488Z,30.23
2023-02-22T01:30:34.469Z,13.95
2023-02-22T01:33:03.119Z,4.70
2023-02-22T01:35:32.911Z,3.20
2023-02-22T01:38:00.421Z,2.40
2023-02-22T01:40:33.763Z,2.50
2023-02-22T01:43:03.465Z,2.88
2023-02-22T01:45:30.483Z,3.15
2023-02-22T01:48:01.883Z,3.38
2023-02-22T01:50:31.993Z,2.63
2023-02-22T01:52:59.184Z,2.58
2023-02-22T01:55:26.954Z,2.08
2023-02-22T01:57:54.256Z,2.72
2023-02-22T02:00:22.304Z,2.20
2023-02-22T02:02:54.660Z,3.00
2023-02-22T02:05:21.897Z,2.95
2023-02-22T02:07:49.510Z,3.33
2023-02-22T02:10:16.543Z,3.50
2023-02-22T02:12:46.857Z,3.15
2023-02-22T02:15:32.632Z,3.13
2023-02-22T02:18:03.437Z,2.85
2023-02-22T02:20:42.488Z,3.03
2023-02-22T02:23:35.687Z,3.40
2023-02-22T02:26:05.399Z,3.33
2023-02-22T02:28:50.855Z,3.70
2023-02-22T02:31:23.602Z,3.08
2023-02-22T02:34:30.047Z,3.50
2023-02-22T02:37:15.408Z,3.28
2023-02-22T02:40:04.902Z,2.55
2023-02-22T02:42:43.660Z,2.88
2023-02-22T02:45:18.464Z,2.40
2023-02-22T02:47:51.559Z,3.45
2023-02-22T02:50:23.587Z,3.72
2023-02-22T02:52:53.605Z,4.97
2023-02-22T02:55:21.129Z,2.60
2023-02-22T02:57:48.057Z,2.40
2023-02-22T03:00:23.808Z,2.38
2023-02-22T03:03:02.696Z,1.90
2023-02-22T03:05:47.975Z,2.08
2023-02-22T03:08:24.685Z,2.05
2023-02-22T03:11:16.683Z,3.53
2023-02-22T03:14:16.563Z,2.25
2023-02-22T03:17:16.299Z,2.33
2023-02-22T03:20:12.242Z,2.58
2023-02-22T03:22:51.073Z,2.90
2023-02-22T03:25:24.559Z,2.85
2023-02-22T03:28:02.418Z,2.90
2023-02-22T03:30:36.266Z,3.03
2023-02-22T03:33:15.466Z,3.38
2023-02-22T03:35:48.528Z,3.38
2023-02-22T03:38:19.210Z,2.88
2023-02-22T03:40:51.242Z,3.40
2023-02-22T03:43:25.120Z,3.30
2023-02-22T03:45:53.337Z,2.67
2023-02-22T03:48:38.093Z,3.05
2023-02-22T03:51:06.443Z,3.22
2023-02-22T03:53:37.213Z,3.33
2023-02-22T03:56:07.472Z,3.00
2023-02-22T03:58:37.018Z,3.05
2023-02-22T04:01:04.527Z,3.17
2023-02-22T04:03:31.448Z,3.40
2023-02-22T04:05:58.621Z,3.67
2023-02-22T04:08:25.772Z,3.17
2023-02-22T04:10:52.938Z,3.80
2023-02-22T04:13:20.011Z,4.00
2023-02-22T04:15:47.326Z,3.25
2023-02-22T04:18:14.404Z,4.38
2023-02-22T04:20:41.552Z,3.67
2023-02-22T04:23:08.507Z,3.35
2023-02-22T04:25:35.507Z,3.20
2023-02-22T04:28:02.972Z,3.50
2023-02-22T04:30:30.459Z,3.55
2023-02-22T04:32:57.726Z,4.20
2023-02-22T04:35:24.763Z,3.47
2023-02-22T04:37:51.722Z,3.42
2023-02-22T04:40:18.861Z,3.25
2023-02-22T04:42:45.866Z,3.47
2023-02-22T04:45:13.432Z,4.10
2023-02-22T04:47:40.522Z,3.67
2023-02-22T04:50:08.850Z,4.03
2023-02-22T04:52:35.789Z,3.58
2023-02-22T04:55:02.830Z,4.03
2023-02-22T04:57:29.821Z,4.13
2023-02-22T04:59:56.934Z,4.30
2023-02-22T05:02:24.068Z,4.20
2023-02-22T05:04:51.067Z,8.07
2023-02-22T05:07:18.077Z,7.15
2023-02-22T05:09:45.013Z,5.53
2023-02-22T05:12:11.949Z,5.43
2023-02-22T05:14:39.201Z,6.63
2023-02-22T05:17:06.185Z,4.72
2023-02-22T05:19:33.373Z,4.30
2023-02-22T05:22:00.356Z,4.13
2023-02-22T05:24:27.348Z,4.20
2023-02-22T05:26:54.361Z,5.07
2023-02-22T05:29:21.353Z,5.10
2023-02-22T05:31:48.596Z,6.72
2023-02-22T05:34:16.409Z,10.07
2023-02-22T05:36:43.542Z,6.35
2023-02-22T05:39:10.506Z,5.32
2023-02-22T05:41:37.569Z,3.30
2023-02-22T05:44:04.861Z,3.83
2023-02-22T05:46:31.888Z,3.42
2023-02-22T05:48:58.866Z,4.18
2023-02-22T05:51:25.829Z,3.95
2023-02-22T05:53:52.958Z,4.20
2023-02-22T05:56:28.825Z,3.78
2023-02-22T05:58:56.375Z,3.85
2023-02-22T06:01:24.045Z,4.40
2023-02-22T06:03:52.059Z,4.40
2023-02-22T06:06:22.176Z,3.88
2023-02-22T06:08:49.609Z,4.60
2023-02-22T06:11:16.876Z,5.43
2023-02-22T06:13:51.209Z,4.53
2023-02-22T06:16:18.395Z,5.05
2023-02-22T06:18:45.305Z,5.15
2023-02-22T06:21:12.166Z,5.03
2023-02-22T06:23:39.475Z,4.53
2023-02-22T06:26:06.720Z,4.82
2023-02-22T06:28:33.678Z,4.65
2023-02-22T06:31:00.742Z,4.00
2023-02-22T06:33:27.678Z,4.80
2023-02-22T06:35:54.608Z,4.53
2023-02-22T06:38:23.633Z,4.53
2023-02-22T06:40:51.001Z,4.78
2023-02-22T06:43:18.339Z,3.75
2023-02-22T06:45:45.385Z,4.43
2023-02-22T06:48:12.692Z,3.95
2023-02-22T06:50:39.672Z,4.63
2023-02-22T06:53:06.707Z,4.20
2023-02-22T06:55:35.549Z,5.13
2023-02-22T06:58:03.579Z,3.92
2023-02-22T07:00:32.235Z,4.53
2023-02-22T07:03:00.519Z,3.58
2023-02-22T07:05:28.451Z,4.43
2023-02-22T07:08:02.937Z,3.67
2023-02-22T07:12:58.122Z,3.20
2023-02-22T07:15:28.058Z,3.80
2023-02-22T07:17:55.677Z,4.32
2023-02-22T07:20:24.636Z,3.65
2023-02-22T07:22:52.103Z,3.50
2023-02-22T07:25:19.896Z,4.43
2023-02-22T07:27:48.146Z,3.90
2023-02-22T07:30:28.078Z,4.00
2023-02-22T07:32:55.735Z,4.28
2023-02-22T07:35:29.085Z,4.60
2023-02-22T07:37:56.593Z,4.35
2023-02-22T07:40:25.388Z,4.00
2023-02-22T07:43:07.207Z,5.07
2023-02-22T07:45:35.630Z,3.50
2023-02-22T07:48:04.471Z,2.90
2023-02-22T07:50:32.937Z,3.92
2023-02-22T07:53:02.230Z,3.30
2023-02-22T07:55:31.155Z,3.17
2023-02-22T07:58:01.585Z,3.08
2023-02-22T08:00:33.923Z,3.17
2023-02-22T08:03:03.069Z,3.88
2023-02-22T08:05:32.440Z,3.30
2023-02-22T08:07:59.420Z,3.45
2023-02-22T08:10:27.258Z,3.47
2023-02-22T08:12:56.199Z,2.60
2023-02-22T08:15:28.732Z,2.70
2023-02-22T08:17:56.263Z,2.60
2023-02-22T08:20:24.220Z,2.83
2023-02-22T08:22:52.076Z,3.00
2023-02-22T08:25:21.346Z,2.70
2023-02-22T08:27:48.929Z,2.72
2023-02-22T08:30:20.367Z,3.20
2023-02-22T08:32:48.625Z,3.13
2023-02-22T08:35:17.344Z,3.28
2023-02-22T08:37:45.477Z,3.53
2023-02-22T08:40:14.955Z,3.10
2023-02-22T08:42:42.042Z,3.20
2023-02-22T08:45:09.978Z,2.92
2023-02-22T08:47:37.246Z,2.50
2023-02-22T08:50:04.629Z,3.10
2023-02-22T08:52:31.861Z,3.13
2023-02-22T08:54:58.822Z,2.50
2023-02-22T08:57:25.758Z,3.03
2023-02-22T08:59:53.512Z,3.10
2023-02-22T09:02:22.307Z,5.80
2023-02-22T09:04:49.650Z,5.10
2023-02-22T09:07:17.499Z,3.45
2023-02-22T09:09:45.166Z,3.80
2023-02-22T09:12:12.367Z,3.40
2023-02-22T09:14:39.338Z,3.33
2023-02-22T09:17:06.551Z,2.50
2023-02-22T09:19:33.480Z,2.40
2023-02-22T09:22:01.150Z,2.70
2023-02-22T09:24:28.330Z,2.95
2023-02-22T09:26:55.548Z,2.97
2023-02-22T09:29:24.983Z,3.63
2023-02-22T09:31:54.916Z,2.75
2023-02-22T09:34:29.671Z,3.45
2023-02-22T09:36:58.312Z,2.67
2023-02-22T09:39:25.864Z,2.10
2023-02-22T09:42:11.887Z,2.42
2023-02-22T09:45:14.228Z,2.83
2023-02-22T09:47:46.817Z,2.67
2023-02-22T09:50:22.546Z,2.42
2023-02-22T09:53:29.901Z,2.42
2023-02-22T09:56:01.964Z,3.15
2023-02-22T09:58:33.632Z,3.47
2023-02-22T10:01:32.175Z,3.83
2023-02-22T10:04:37.919Z,3.28
2023-02-22T10:07:18.510Z,3.17
2023-02-22T10:09:48.467Z,2.42
2023-02-22T10:12:30.209Z,3.38
2023-02-22T10:15:18.521Z,3.17
2023-02-22T10:18:22.397Z,2.45
2023-02-22T10:20:49.319Z,3.00
2023-02-22T10:23:25.536Z,2.65
2023-02-22T10:26:01.503Z,3.13
2023-02-22T10:28:43.414Z,3.25
2023-02-22T10:31:21.346Z,3.05
2023-02-22T10:33:52.954Z,3.53
2023-02-22T10:36:22.822Z,2.72
2023-02-22T10:39:00.255Z,2.95
2023-02-22T10:41:32.842Z,2.97
2023-02-22T10:44:01.272Z,2.53
2023-02-22T10:46:29.654Z,2.45
2023-02-22T10:49:02.994Z,1.70
2023-02-22T10:51:30.687Z,2.05
2023-02-22T10:54:27.213Z,2.00
2023-02-22T10:56:56.822Z,2.35
2023-02-22T10:59:33.693Z,2.72
2023-02-22T11:02:08.620Z,2.25
2023-02-22T11:05:05.287Z,2.60
2023-02-22T11:07:35.732Z,1.77
2023-02-22T11:10:06.615Z,1.90
2023-02-22T11:12:39.777Z,1.73
2023-02-22T11:15:19.895Z,1.92
2023-02-22T11:17:49.181Z,2.10
2023-02-22T11:20:25.797Z,2.70
2023-02-22T11:23:04.267Z,2.85
2023-02-22T11:25:40.242Z,3.53
2023-02-22T11:28:15.017Z,4.00
2023-02-22T11:30:44.785Z,2.90
2023-02-22T11:33:24.034Z,3.50
2023-02-22T11:35:52.958Z,3.30
2023-02-22T11:38:26.837Z,3.00
2023-02-22T11:41:17.389Z,3.17
2023-02-22T11:43:49.928Z,3.95
2023-02-22T11:46:34.157Z,3.72
2023-02-22T11:49:09.153Z,2.85
2023-02-22T11:52:13.880Z,2.65
2023-02-22T11:54:55.589Z,2.30
2023-02-22T11:57:41.432Z,3.00
2023-02-22T12:00:27.973Z,2.13
2023-02-22T12:03:31.394Z,2.55
2023-02-22T12:06:08.336Z,2.30
2023-02-22T12:08:54.996Z,3.17
2023-02-22T12:11:44.484Z,2.05
2023-02-22T12:14:37.199Z,2.20
2023-02-22T12:17:04.088Z,2.20
2023-02-22T12:19:38.202Z,2.72
2023-02-22T12:22:26.101Z,2.08
2023-02-22T12:25:08.516Z,2.17
2023-02-22T12:27:51.924Z,2.20
2023-02-22T12:30:23.742Z,2.42
2023-02-22T12:33:05.982Z,2.40
2023-02-22T12:35:42.170Z,2.10
2023-02-22T12:38:37.306Z,2.70
2023-02-22T12:44:01.727Z,2.08
2023-02-22T12:46:55.420Z,2.45
2023-02-22T12:49:44.680Z,2.20
2023-02-22T12:52:23.586Z,2.33
2023-02-22T12:54:50.506Z,2.42
2023-02-22T12:57:35.926Z,2.65
2023-02-22T13:00:17.108Z,1.90
2023-02-22T13:02:51.294Z,2.35
2023-02-22T13:05:20.730Z,2.30
2023-02-22T13:08:11.409Z,2.60
2023-02-22T13:10:59.956Z,2.78
2023-02-22T13:13:29.585Z,2.47
2023-02-22T13:16:08.621Z,2.40
2023-02-22T13:18:44.542Z,2.70
2023-02-22T13:21:31.947Z,2.35
2023-02-22T13:24:12.680Z,1.92
2023-02-22T13:26:53.859Z,2.10
2023-02-22T13:29:28.571Z,4.13
2023-02-22T13:32:10.378Z,2.72
2023-02-22T13:34:56.919Z,3.13
2023-02-22T13:37:50.897Z,1.90
2023-02-22T13:40:26.906Z,2.10
2023-02-22T13:43:31.420Z,2.28
2023-02-22T13:46:25.402Z,15.40
2023-02-22T13:49:11.285Z,6.30
2023-02-22T13:51:50.317Z,3.00
2023-02-22T13:54:23.146Z,3.00
2023-02-22T13:56:52.407Z,2.40
2023-02-22T13:59:36.278Z,2.20
2023-02-22T14:02:07.982Z,2.30
2023-02-22T14:04:38.735Z,2.17
2023-02-22T14:07:26.461Z,2.33
2023-02-22T14:09:56.596Z,2.72
2023-02-22T14:12:29.444Z,3.67
2023-02-22T14:15:30.916Z,2.80
2023-02-22T14:18:03.962Z,3.70
2023-02-22T14:20:36.849Z,3.60
2023-02-22T14:23:41.388Z,2.75
2023-02-22T14:26:18.671Z,3.28
2023-02-22T14:28:57.234Z,3.72
2023-02-22T14:31:36.856Z,3.10
2023-02-22T14:34:51.608Z,3.35
2023-02-22T14:37:38.281Z,3.33
2023-02-22T14:40:18.421Z,2.38
2023-02-22T14:42:51.592Z,2.60
2023-02-22T14:45:29.768Z,3.28
2023-02-22T14:48:11.851Z,2.53
2023-02-22T14:50:44.306Z,2.78
2023-02-22T14:53:16.796Z,3.38
2023-02-22T14:55:51.037Z,3.10
2023-02-22T14:58:25.940Z,2.75
2023-02-22T15:00:56.790Z,2.90
2023-02-22T15:03:37.493Z,3.63
2023-02-22T15:06:15.584Z,4.63
2023-02-22T15:08:49.044Z,4.45
2023-02-22T15:11:23.218Z,3.38
2023-02-22T15:13:55.164Z,3.60
2023-02-22T15:16:25.334Z,2.83
2023-02-22T15:18:58.233Z,2.92
2023-02-22T15:21:27.841Z,2.58
2023-02-22T15:24:04.004Z,3.85
2023-02-22T15:26:44.245Z,3.40
2023-02-22T15:31:48.337Z,6.07
2023-02-22T15:34:15.419Z,5.35
2023-02-22T15:36:44.382Z,6.43
2023-02-22T15:39:27.336Z,3.72
2023-02-22T15:42:07.985Z,3.17
2023-02-22T15:44:44.293Z,4.50
2023-02-22T15:47:20.613Z,3.92
2023-02-22T15:50:15.451Z,5.55
2023-02-22T15:53:23.877Z,5.80
2023-02-22T15:55:58.013Z,6.30
2023-02-22T15:58:28.876Z,5.50
2023-02-22T16:01:18.949Z,4.30
2023-02-22T16:03:53.258Z,3.83
2023-02-22T16:06:36.939Z,4.22
2023-02-22T16:09:12.027Z,4.63
2023-02-22T16:11:44.634Z,4.60
2023-02-22T16:14:34.558Z,4.97
2023-02-22T16:17:31.272Z,5.47
2023-02-22T16:20:00.219Z,5.90
2023-02-22T16:22:35.689Z,6.72
2023-02-22T16:25:24.878Z,5.65
2023-02-22T16:27:56.079Z,6.63
2023-02-22T16:30:39.544Z,5.65
2023-02-22T16:33:16.639Z,6.40
2023-02-22T16:35:52.237Z,6.22
2023-02-22T16:38:21.265Z,4.85
2023-02-22T16:40:55.323Z,4.70
2023-02-22T16:43:25.414Z,5.22
2023-02-22T16:45:53.307Z,6.28
2023-02-22T16:48:32.911Z,6.28
2023-02-22T16:51:09.741Z,5.88
2023-02-22T16:53:37.760Z,6.22
2023-02-22T16:56:08.549Z,6.72
2023-02-22T16:58:39.297Z,5.97
2023-02-22T17:01:06.351Z,5.32
2023-02-22T17:03:33.851Z,5.43
2023-02-22T17:06:00.974Z,5.65
2023-02-22T17:08:28.099Z,6.45
2023-02-22T17:10:56.921Z,5.00
2023-02-22T17:13:27.304Z,4.43
2023-02-22T17:15:55.171Z,5.47
2023-02-22T17:18:24.093Z,4.80
2023-02-22T17:20:52.437Z,5.55
2023-02-22T17:23:20.275Z,5.80
2023-02-22T17:26:00.735Z,5.93
2023-02-22T17:28:28.119Z,6.65
2023-02-22T17:31:01.482Z,5.28
2023-02-22T17:33:33.207Z,5.47
2023-02-22T17:36:05.063Z,5.35
2023-02-22T17:38:32.442Z,5.30
2023-02-22T17:41:01.468Z,5.80
2023-02-22T17:43:29.150Z,6.43
2023-02-22T17:45:56.954Z,5.32
2023-02-22T17:48:24.643Z,7.03
2023-02-22T17:50:52.548Z,5.90
2023-02-22T17:53:22.824Z,6.18
2023-02-22T17:55:50.323Z,6.10
2023-02-22T18:02:05.352Z,6.28
2023-02-22T18:04:34.970Z,6.13
2023-02-22T18:07:01.889Z,7.63
2023-02-22T18:09:28.902Z,7.22
2023-02-22T18:11:55.898Z,6.30
2023-02-22T18:14:23.784Z,7.32
2023-02-22T18:16:50.721Z,7.32
2023-02-22T18:19:21.016Z,7.45
2023-02-22T18:21:50.025Z,7.88
2023-02-22T18:24:17.547Z,9.50
2023-02-22T18:26:44.551Z,9.68
2023-02-22T18:29:12.475Z,9.23
2023-02-22T18:31:39.578Z,9.73
2023-02-22T18:34:06.567Z,8.07
2023-02-22T18:36:33.485Z,8.55
2023-02-22T18:39:00.494Z,7.40
2023-02-22T18:41:28.592Z,6.57
2023-02-22T18:43:57.755Z,7.65
2023-02-22T18:46:25.654Z,6.13
2023-02-22T18:48:55.669Z,5.53
2023-02-22T18:51:23.791Z,5.85
2023-02-22T18:53:54.977Z,6.18
2023-02-22T18:56:22.420Z,5.75
2023-02-22T18:58:53.893Z,6.03
2023-02-22T19:01:22.211Z,5.13
2023-02-22T19:03:49.638Z,6.75
2023-02-22T19:06:18.332Z,6.38
2023-02-22T19:08:47.182Z,6.05
2023-02-22T19:11:19.234Z,5.30
2023-02-22T19:13:47.513Z,5.80
2023-02-22T19:16:20.042Z,5.47
2023-02-22T19:18:49.083Z,6.43
2023-02-22T19:25:04.633Z,5.47
2023-02-22T19:27:33.163Z,6.68
2023-02-22T19:30:00.616Z,6.07
2023-02-22T19:32:27.622Z,7.93
2023-02-22T19:35:02.332Z,7.18
2023-02-22T19:41:19.802Z,7.68
2023-02-22T19:43:48.847Z,7.82
2023-02-22T19:46:19.040Z,7.63
2023-02-22T19:48:46.309Z,8.15
2023-02-22T19:51:16.208Z,7.80
2023-02-22T19:53:44.313Z,7.90
2023-02-22T19:56:14.787Z,7.70
2023-02-22T19:58:43.221Z,8.15
2023-02-22T20:01:15.987Z,8.57
2023-02-22T20:03:43.690Z,8.35
2023-02-22T20:06:11.576Z,8.27
2023-02-22T20:08:42.303Z,7.70
2023-02-22T20:11:11.050Z,7.72
2023-02-22T20:13:39.544Z,6.80
2023-02-22T20:16:07.310Z,7.55
2023-02-22T20:18:34.628Z,5.88
2023-02-22T20:21:07.177Z,6.75
2023-02-22T20:23:34.340Z,11.40
2023-02-22T20:26:01.438Z,9.40
2023-02-22T20:28:28.403Z,7.43
2023-02-22T20:30:55.379Z,6.65
2023-02-22T20:33:23.459Z,7.05
2023-02-22T20:35:50.490Z,6.85
2023-02-22T20:38:19.351Z,6.13
2023-02-22T20:40:46.975Z,6.03
2023-02-22T20:43:14.062Z,6.35
2023-02-22T20:45:41.064Z,5.70
2023-02-22T20:48:08.064Z,6.82
2023-02-22T20:50:35.643Z,7.03
2023-02-22T20:53:02.840Z,6.80
2023-02-22T20:55:30.534Z,7.10
2023-02-22T20:57:57.609Z,6.95
2023-02-22T21:00:24.673Z,6.65
2023-02-22T21:02:51.706Z,6.47
2023-02-22T21:05:18.968Z,5.93
2023-02-22T21:07:45.974Z,5.07
2023-02-22T21:10:12.905Z,4.60
2023-02-22T21:12:39.868Z,3.85
2023-02-22T21:15:07.823Z,4.40
2023-02-22T21:17:36.964Z,4.10
2023-02-22T21:20:10.651Z,4.63
2023-02-22T21:22:39.210Z,4.63
2023-02-22T21:25:06.621Z,4.45
2023-02-22T21:27:33.897Z,4.72
2023-02-22T21:30:01.003Z,5.63
2023-02-22T21:32:28.131Z,5.60
2023-02-22T21:38:36.024Z,7.65
2023-02-22T21:41:03.429Z,6.38
2023-02-22T21:43:30.507Z,6.90
2023-02-22T21:45:59.408Z,7.68
2023-02-22T21:48:26.754Z,7.43
2023-02-22T21:50:54.243Z,7.38
2023-02-22T21:53:22.794Z,6.97
2023-02-22T21:55:50.352Z,7.65
2023-02-22T21:58:17.247Z,7.68
2023-02-22T22:00:44.242Z,8.73
2023-02-22T22:03:20.559Z,8.38
2023-02-22T22:05:48.476Z,7.88
2023-02-22T22:08:21.890Z,9.50
2023-02-22T22:10:55.399Z,9.77
2023-02-22T22:13:23.848Z,10.23
2023-02-22T22:15:51.282Z,9.57
2023-02-22T22:18:18.263Z,11.02
2023-02-22T22:20:45.239Z,12.20
2023-02-22T22:23:12.732Z,10.23
2023-02-22T22:25:39.674Z,11.35
2023-02-22T22:28:08.009Z,10.55
2023-02-22T22:30:37.186Z,11.63
2023-02-22T22:33:11.577Z,12.00
2023-02-22T22:35:39.185Z,11.32
2023-02-22T22:38:06.789Z,10.13
2023-02-22T22:40:34.450Z,10.82
2023-02-22T22:43:01.369Z,11.02
2023-02-22T22:45:28.267Z,11.20
2023-02-22T22:51:36.679Z,11.07
2023-02-22T22:54:05.863Z,10.52
2023-02-22T22:56:35.399Z,9.82
2023-02-22T22:59:07.918Z,10.70
2023-02-22T23:01:40.809Z,9.05
2023-02-22T23:04:16.545Z,9.07
2023-02-22T23:06:50.633Z,9.32
2023-02-22T23:09:31.608Z,8.50
2023-02-22T23:12:08.962Z,9.82
2023-02-22T23:14:38.510Z,8.68
2023-02-22T23:17:14.143Z,8.85
2023-02-22T23:19:42.374Z,8.77
2023-02-22T23:22:09.600Z,9.93
2023-02-22T23:24:37.391Z,9.73
2023-02-22T23:27:10.901Z,9.30
2023-02-22T23:29:40.396Z,8.77
2023-02-22T23:32:08.856Z,8.90
2023-02-22T23:34:38.682Z,8.90
2023-02-22T23:37:09.974Z,9.65
2023-02-22T23:39:37.348Z,9.48
2023-02-22T23:42:04.541Z,8.32
2023-02-22T23:44:31.587Z,8.85
2023-02-22T23:46:58.773Z,8.07
2023-02-22T23:49:27.991Z,8.60
2023-02-22T23:51:55.690Z,8.27
2023-02-22T23:54:25.615Z,7.97
2023-02-22T23:56:58.658Z,8.73
2023-02-22T23:59:27.138Z,8.95
